サンティアゴ の空港の天気 - METARとTAF

アルトゥーロ・メリノ・ベニテス国際空港(サンティアゴ) ( SCEL / SCL ) - チリ サンティアゴ
飛行場実況気象(Metar)
観測時間05/30 23:00 CLT (05/31 03:00 UTC)
風向・風速静穏 0m/s
視程5000m
天気現象
全天の4割程度の雲 雲底高度 2740m
気温10℃
湿度82%
気圧1018hPa
METARSCEL 310300Z 00000KT 5000 FU SCT090 10/07 Q1018 NOSIG
過去の天気等 Google飛行場航空写真 Wunderground天気予報

過去48時間のMETAR

飛行場予報(TAF)
発表時間: 5/30 18:29 CLT (5/30 22:29 UTC)
予報対象時間: 30日20時 CLT ~ 31日20時 CLT
風向・風速南 3m/s
視程10km以上
全天の4割程度の雲 雲底高度 2130m
全天の8割程度の雲 雲底高度 3960m
30日21時 CLT ~ 30日23時 CLT に徐々に
風向・風速不定 2m/s
視程7000m
全天の4割程度の雲 雲底高度 910m
全天の8割程度の雲 雲底高度 2290m
30日23時 CLT ~ 31日5時 CLT に一時的に
風向・風速東北東 2m/s
視程6000m
天気現象弱い雨
全天の4割程度の雲 雲底高度 760m
全天を覆う雲 雲底高度 2130m
31日10時 CLT ~ 31日12時 CLT に徐々に
風向・風速南 3m/s
視程8000m
少しの雲 雲底高度 760m
全天の4割程度の雲 雲底高度 3050m
31日14時 CLT ~ 31日16時 CLT に徐々に
風向・風速南 6m/s
視程10km以上
なし
TAF SCEL 302229Z 3100/3124 17006KT 9999 SCT070 BKN130 TX17/3119Z TN06 /3110Z
BECMG 3101/3103 VRB03KT 7000 SCT030 BKN075
TEMPO 3103/3109 06004KT 6000 -RA SCT025 OVC070
BECMG 3114/3116 17005KT 8000 FEW025 SCT100
BECMG 3118/3120 19012KT CAVOK